Time;durP1;ratioP1;P1;durP2;ratioP2;P2;SDS_P1;SDS_P2;PMS_P1;PMS_P2;Temp;Humidity;BMP_temperature;BMP_pressure;BME280_temperature;BME280_humidity;BME280_pressure;Samples;Min_cycle;Max_cycle;Signal;HPM_P1;HPM_P2
2023/12/27 00:00:45;;;;;;;3.88;3.40;;;7.20;73.40;;;;;;5047046;28;20403;-79
2023/12/27 00:03:11;;;;;;;3.38;3.08;;;7.20;74.00;;;;;;5046999;28;20044;-79
2023/12/27 00:05:37;;;;;;;3.67;3.15;;;7.20;73.00;;;;;;5057731;28;20495;-79
2023/12/27 00:08:03;;;;;;;3.60;3.20;;;7.20;73.50;;;;;;5043926;28;20036;-79
2023/12/27 00:10:29;;;;;;;4.20;3.10;;;7.20;73.30;;;;;;5061840;28;20028;-81
2023/12/27 00:12:55;;;;;;;4.13;3.33;;;7.20;72.90;;;;;;5060713;28;20036;-79
2023/12/27 00:15:22;;;;;;;3.10;2.78;;;7.20;72.40;;;;;;5060223;28;20035;-78
2023/12/27 00:17:47;;;;;;;3.85;3.42;;;7.20;74.30;;;;;;5059380;28;20043;-78
2023/12/27 00:20:14;;;;;;;3.67;3.15;;;7.20;75.50;;;;;;5060159;28;20036;-78
2023/12/27 00:22:40;;;;;;;4.45;3.67;;;7.20;76.60;;;;;;5059872;28;20537;-79
2023/12/27 00:25:07;;;;;;;4.57;3.38;;;7.20;76.10;;;;;;5042814;28;20416;-79
2023/12/27 00:27:32;;;;;;;4.28;3.50;;;7.20;76.30;;;;;;5051301;28;20097;-78
2023/12/27 00:29:58;;;;;;;5.38;3.67;;;7.20;76.30;;;;;;5050613;28;20041;-79
2023/12/27 00:32:24;;;;;;;5.07;3.40;;;7.20;76.20;;;;;;5034843;28;20040;-79
2023/12/27 00:34:52;;;;;;;4.50;3.63;;;7.30;76.20;;;;;;5066840;28;20032;-79
2023/12/27 00:37:18;;;;;;;4.82;3.53;;;7.30;76.50;;;;;;5033381;28;20383;-79
2023/12/27 00:39:46;;;;;;;4.93;3.70;;;7.20;76.30;;;;;;5062606;28;20033;-80
2023/12/27 00:42:12;;;;;;;4.50;3.10;;;7.20;76.60;;;;;;5064364;28;20087;-80
2023/12/27 00:44:39;;;;;;;3.85;3.17;;;7.20;76.30;;;;;;5049448;28;20024;-80
2023/12/27 00:47:05;;;;;;;4.60;3.47;;;7.20;76.60;;;;;;5030554;28;20031;-80
2023/12/27 00:49:31;;;;;;;4.00;3.60;;;7.30;76.70;;;;;;5034205;28;20530;-79
2023/12/27 00:51:57;;;;;;;4.05;3.45;;;7.30;76.60;;;;;;5065376;28;20044;-79
2023/12/27 00:54:23;;;;;;;4.15;3.38;;;7.20;76.90;;;;;;5045276;28;20041;-79
2023/12/27 00:56:49;;;;;;;4.25;3.47;;;7.20;76.90;;;;;;5050909;28;20518;-80
2023/12/27 00:59:16;;;;;;;4.38;3.35;;;7.20;77.00;;;;;;5066356;28;20168;-79
2023/12/27 01:01:43;;;;;;;4.72;4.03;;;7.20;76.60;;;;;;5061517;28;20119;-79
2023/12/27 01:04:09;;;;;;;4.10;3.25;;;7.20;76.90;;;;;;5078397;28;20040;-79
2023/12/27 01:06:36;;;;;;;3.72;3.38;;;7.30;77.10;;;;;;5050967;28;20032;-78
2023/12/27 01:09:02;;;;;;;4.10;3.63;;;7.30;76.90;;;;;;5050798;28;20036;-80
2023/12/27 01:11:28;;;;;;;7.07;3.70;;;7.30;76.90;;;;;;5061094;28;20079;-80
2023/12/27 01:13:54;;;;;;;5.78;3.53;;;7.20;77.20;;;;;;5064655;28;20033;-80
2023/12/27 01:16:20;;;;;;;5.22;3.80;;;7.30;76.90;;;;;;5062469;28;20029;-80
2023/12/27 01:18:46;;;;;;;5.35;4.47;;;7.30;77.10;;;;;;5044462;28;20570;-82
2023/12/27 01:21:13;;;;;;;4.90;3.75;;;7.30;77.20;;;;;;5049262;28;20102;-80
2023/12/27 01:23:40;;;;;;;5.32;4.38;;;7.30;77.20;;;;;;5078304;28;20071;-80
2023/12/27 01:26:06;;;;;;;4.78;3.67;;;7.30;77.10;;;;;;5049199;28;20043;-80
2023/12/27 01:28:32;;;;;;;5.63;4.18;;;7.30;77.20;;;;;;5066820;28;20392;-79
2023/12/27 01:30:59;;;;;;;5.65;4.30;;;7.30;77.10;;;;;;5063349;28;20036;-80
2023/12/27 01:33:25;;;;;;;4.32;3.90;;;7.20;77.20;;;;;;5059771;28;20053;-79
2023/12/27 01:35:51;;;;;;;5.15;4.38;;;7.30;77.00;;;;;;5060438;28;20052;-79
2023/12/27 01:38:18;;;;;;;5.53;4.18;;;7.30;78.00;;;;;;5066263;28;20040;-80
2023/12/27 01:40:51;;;;;;;6.25;4.78;;;7.30;77.40;;;;;;5064783;28;20044;-79
2023/12/27 01:43:18;;;;;;;4.65;4.15;;;7.30;77.70;;;;;;5046110;28;20036;-79
2023/12/27 01:45:46;;;;;;;5.30;4.32;;;7.30;77.40;;;;;;5062507;28;20493;-79
2023/12/27 01:48:12;;;;;;;6.18;4.60;;;7.30;77.30;;;;;;5063073;28;20035;-79
2023/12/27 01:50:38;;;;;;;5.40;4.28;;;7.30;77.20;;;;;;5064949;28;20139;-79
2023/12/27 01:53:08;;;;;;;6.38;4.68;;;7.30;77.60;;;;;;5048903;28;20141;-79
2023/12/27 01:55:34;;;;;;;6.78;4.78;;;7.30;77.50;;;;;;5060609;28;20083;-79
2023/12/27 01:58:02;;;;;;;6.28;4.55;;;7.30;77.40;;;;;;5077763;28;20511;-79
2023/12/27 02:00:29;;;;;;;6.55;4.10;;;7.30;77.20;;;;;;5048219;28;20514;-79
2023/12/27 02:02:56;;;;;;;5.68;4.35;;;7.30;77.50;;;;;;5059952;28;20503;-80
2023/12/27 02:05:22;;;;;;;5.57;4.35;;;7.30;77.20;;;;;;5063223;28;20407;-79
2023/12/27 02:07:48;;;;;;;7.18;4.60;;;7.30;77.30;;;;;;5060449;28;20036;-79
2023/12/27 02:10:15;;;;;;;5.57;4.43;;;7.30;77.40;;;;;;5044968;28;20082;-79
2023/12/27 02:12:41;;;;;;;6.35;4.82;;;7.30;77.80;;;;;;5048330;28;20052;-79
2023/12/27 02:15:07;;;;;;;7.55;5.38;;;7.30;77.80;;;;;;5061322;28;20507;-79
2023/12/27 02:17:34;;;;;;;5.78;4.70;;;7.30;77.70;;;;;;5048791;28;20033;-79
2023/12/27 02:20:02;;;;;;;6.32;4.53;;;7.30;77.80;;;;;;5063211;28;20101;-80
2023/12/27 02:22:30;;;;;;;7.07;4.78;;;7.30;77.60;;;;;;5047915;28;20127;-78
2023/12/27 02:24:56;;;;;;;6.53;4.93;;;7.30;77.70;;;;;;5063634;28;20033;-79
2023/12/27 02:27:23;;;;;;;7.05;5.03;;;7.30;77.60;;;;;;5047365;28;20037;-80
2023/12/27 02:29:49;;;;;;;6.25;5.20;;;7.30;77.60;;;;;;5043718;28;20033;-80
2023/12/27 02:32:15;;;;;;;5.85;4.72;;;7.30;77.60;;;;;;5062738;28;20488;-81
2023/12/27 02:34:41;;;;;;;6.80;4.75;;;7.30;77.70;;;;;;5048117;28;20035;-80
2023/12/27 02:37:07;;;;;;;6.25;5.00;;;7.30;77.70;;;;;;5047898;28;20032;-82
2023/12/27 02:39:33;;;;;;;6.63;5.00;;;7.30;77.80;;;;;;5047601;28;20040;-81
2023/12/27 02:41:59;;;;;;;6.70;4.97;;;7.30;77.90;;;;;;5061264;28;20036;-82
2023/12/27 02:44:27;;;;;;;7.18;5.18;;;7.30;77.50;;;;;;5061626;28;20446;-82
2023/12/27 02:46:54;;;;;;;5.57;4.78;;;7.30;77.60;;;;;;5064180;28;20036;-84
2023/12/27 02:49:20;;;;;;;6.53;5.15;;;7.30;77.60;;;;;;5047986;28;20438;-82
2023/12/27 02:51:47;;;;;;;7.38;5.32;;;7.30;77.70;;;;;;5043165;28;20563;-81
2023/12/27 02:54:13;;;;;;;7.18;5.53;;;7.30;77.50;;;;;;5030587;28;20035;-80
2023/12/27 02:56:39;;;;;;;6.68;5.05;;;7.30;77.50;;;;;;5078972;28;20028;-82
2023/12/27 02:59:06;;;;;;;7.30;5.38;;;7.30;77.70;;;;;;5062320;28;20554;-82
2023/12/27 03:01:32;;;;;;;6.80;5.30;;;7.30;77.40;;;;;;5063610;28;20040;-81
2023/12/27 03:03:58;;;;;;;6.72;5.07;;;7.30;77.70;;;;;;5063837;28;20628;-82
2023/12/27 03:06:24;;;;;;;7.32;5.10;;;7.30;77.80;;;;;;5060008;28;20037;-82
2023/12/27 03:08:52;;;;;;;5.78;4.78;;;7.30;77.60;;;;;;5060701;28;20036;-81
2023/12/27 03:11:18;;;;;;;7.35;5.57;;;7.30;78.00;;;;;;5047617;28;20483;-79
2023/12/27 03:13:44;;;;;;;6.47;5.00;;;7.30;77.90;;;;;;5047877;28;20033;-79
2023/12/27 03:16:10;;;;;;;6.03;4.68;;;7.30;78.00;;;;;;5059492;28;20098;-80
2023/12/27 03:18:37;;;;;;;6.82;5.25;;;7.30;78.20;;;;;;5046792;28;20499;-79
2023/12/27 03:21:04;;;;;;;6.93;4.88;;;7.30;78.10;;;;;;5059619;28;20049;-80
2023/12/27 03:23:30;;;;;;;7.03;4.93;;;7.30;78.00;;;;;;5061737;28;20124;-79
2023/12/27 03:25:56;;;;;;;7.32;5.38;;;7.30;78.20;;;;;;5048588;28;20061;-80
2023/12/27 03:28:23;;;;;;;7.13;5.28;;;7.30;78.10;;;;;;5044249;28;20040;-80
2023/12/27 03:30:49;;;;;;;6.13;5.00;;;7.30;78.30;;;;;;5060018;28;20089;-80
2023/12/27 03:33:15;;;;;;;5.88;5.13;;;7.30;78.30;;;;;;5059330;28;20442;-80
2023/12/27 03:35:41;;;;;;;6.38;5.10;;;7.30;78.20;;;;;;5058887;28;20033;-80
2023/12/27 03:38:07;;;;;;;7.20;5.20;;;7.30;78.20;;;;;;5059908;28;20069;-79
2023/12/27 03:40:33;;;;;;;7.40;5.15;;;7.30;78.30;;;;;;5030418;28;20502;-79
2023/12/27 03:42:59;;;;;;;6.47;5.28;;;7.30;78.20;;;;;;5060116;28;20032;-77
2023/12/27 03:45:25;;;;;;;8.18;5.65;;;7.30;78.30;;;;;;5058951;28;20029;-81
2023/12/27 03:47:51;;;;;;;7.78;5.28;;;7.30;78.00;;;;;;5059333;28;20174;-89
2023/12/27 03:50:17;;;;;;;6.75;5.13;;;7.30;78.10;;;;;;5060914;28;20082;-85
2023/12/27 03:52:43;;;;;;;5.82;4.72;;;7.30;78.10;;;;;;5046624;28;20604;-86
2023/12/27 03:55:10;;;;;;;6.57;5.18;;;7.30;78.30;;;;;;5052727;28;20095;-87
2023/12/27 03:57:37;;;;;;;6.30;4.97;;;7.30;78.00;;;;;;5017728;28;20029;-87
2023/12/27 04:00:05;;;;;;;7.55;4.78;;;7.40;78.20;;;;;;5032485;28;20332;-86
2023/12/27 04:02:33;;;;;;;6.43;5.20;;;7.30;78.20;;;;;;5062288;28;20120;-83
2023/12/27 04:04:59;;;;;;;7.38;5.20;;;7.30;78.30;;;;;;5052006;28;20040;-85
2023/12/27 04:07:25;;;;;;;7.40;5.68;;;7.30;78.00;;;;;;5068012;28;20028;-80
2023/12/27 04:09:51;;;;;;;6.72;5.18;;;7.40;77.90;;;;;;5064884;28;20039;-80
2023/12/27 04:12:18;;;;;;;7.45;5.50;;;7.40;78.50;;;;;;5065184;28;20116;-80
2023/12/27 04:14:44;;;;;;;7.07;5.32;;;7.30;78.30;;;;;;5066039;28;20116;-79
2023/12/27 04:17:10;;;;;;;6.25;5.30;;;7.40;78.10;;;;;;5064517;28;20093;-79
2023/12/27 04:19:37;;;;;;;6.60;4.85;;;7.40;78.30;;;;;;5046589;28;20041;-79
2023/12/27 04:22:03;;;;;;;6.45;5.03;;;7.30;78.20;;;;;;5064140;28;20388;-79
2023/12/27 04:24:29;;;;;;;8.25;5.85;;;7.30;78.30;;;;;;5048909;28;20036;-77
2023/12/27 04:26:55;;;;;;;7.40;5.72;;;7.30;78.30;;;;;;5066197;28;20036;-78
2023/12/27 04:29:21;;;;;;;6.72;5.38;;;7.40;78.50;;;;;;5066564;28;20039;-77
2023/12/27 04:31:48;;;;;;;8.45;5.63;;;7.30;78.10;;;;;;5066213;28;20127;-78
2023/12/27 04:34:14;;;;;;;5.32;4.68;;;7.40;78.40;;;;;;5052573;28;20037;-79
2023/12/27 04:36:40;;;;;;;7.00;5.47;;;7.30;78.20;;;;;;5038288;28;20183;-77
2023/12/27 04:39:08;;;;;;;7.07;5.25;;;7.30;78.10;;;;;;5031087;28;20137;-79
2023/12/27 04:41:34;;;;;;;6.45;4.93;;;7.40;78.30;;;;;;5063872;28;20045;-81
2023/12/27 04:44:12;;;;;;;6.47;5.38;;;7.30;78.00;;;;;;5082981;28;20028;-82
2023/12/27 04:46:38;;;;;;;8.00;5.85;;;7.30;78.30;;;;;;5063921;28;20036;-79
2023/12/27 04:49:05;;;;;;;7.53;5.53;;;7.40;78.50;;;;;;5048127;28;20033;-80
2023/12/27 04:51:31;;;;;;;10.63;5.95;;;7.40;78.70;;;;;;5045855;28;20140;-77
2023/12/27 04:53:57;;;;;;;7.95;5.03;;;7.40;79.00;;;;;;5062032;28;20423;-77
2023/12/27 04:56:23;;;;;;;7.95;5.72;;;7.40;79.20;;;;;;5050208;28;20029;-77
2023/12/27 04:58:49;;;;;;;8.02;5.82;;;7.40;79.70;;;;;;5063411;28;20051;-78
2023/12/27 05:01:16;;;;;;;8.45;5.90;;;7.40;79.70;;;;;;5063721;28;20052;-77
2023/12/27 05:03:44;;;;;;;8.18;5.85;;;7.40;80.00;;;;;;5062951;28;20029;-77
2023/12/27 05:06:13;;;;;;;8.15;6.50;;;7.40;80.10;;;;;;5061890;28;20036;-77
2023/12/27 05:08:40;;;;;;;9.02;5.53;;;7.40;80.30;;;;;;5079756;28;20119;-78
2023/12/27 05:11:20;;;;;;;8.30;6.10;;;7.40;80.00;;;;;;5078203;28;20048;-78
2023/12/27 05:13:46;;;;;;;9.50;5.25;;;7.40;80.40;;;;;;5062346;28;20025;-77
2023/12/27 05:16:14;;;;;;;7.45;5.53;;;7.40;80.40;;;;;;5060310;28;20028;-78
2023/12/27 05:18:42;;;;;;;7.00;5.65;;;7.40;80.40;;;;;;5061549;28;20039;-78
2023/12/27 05:21:10;;;;;;;10.02;6.03;;;7.40;80.80;;;;;;5048823;28;20045;-78
2023/12/27 05:23:36;;;;;;;7.75;5.90;;;7.40;80.60;;;;;;5061276;28;20025;-78
2023/12/27 05:26:04;;;;;;;7.90;5.80;;;7.40;80.60;;;;;;5080657;28;20090;-77
2023/12/27 05:28:30;;;;;;;8.38;6.20;;;7.40;80.60;;;;;;5062733;28;20546;-77
2023/12/27 05:30:56;;;;;;;7.72;5.72;;;7.40;80.70;;;;;;5063089;28;20163;-77
2023/12/27 05:33:24;;;;;;;7.35;5.60;;;7.40;80.60;;;;;;5060894;28;20527;-78
2023/12/27 05:35:51;;;;;;;8.52;5.85;;;7.40;80.40;;;;;;5062329;28;20534;-77
2023/12/27 05:38:17;;;;;;;8.13;5.78;;;7.40;80.60;;;;;;5062985;28;20040;-78
2023/12/27 05:40:43;;;;;;;8.25;5.68;;;7.40;80.30;;;;;;5049759;28;20047;-77
2023/12/27 05:43:09;;;;;;;7.88;5.68;;;7.40;80.40;;;;;;5064336;28;20033;-78
2023/12/27 05:45:35;;;;;;;8.05;5.78;;;7.40;80.40;;;;;;5062191;28;20150;-78
2023/12/27 05:48:04;;;;;;;9.30;6.03;;;7.40;80.30;;;;;;5060452;28;20079;-77
2023/12/27 05:50:30;;;;;;;8.43;6.05;;;7.40;80.20;;;;;;5061889;28;20136;-78
2023/12/27 05:52:57;;;;;;;7.38;5.80;;;7.40;79.90;;;;;;5064977;28;20025;-77
2023/12/27 05:55:23;;;;;;;11.75;6.60;;;7.40;80.40;;;;;;5063795;28;20033;-76
2023/12/27 05:57:49;;;;;;;7.32;5.63;;;7.40;80.40;;;;;;5063757;28;20094;-76
2023/12/27 06:00:15;;;;;;;7.28;5.85;;;7.40;80.40;;;;;;5062954;28;20422;-75
2023/12/27 06:02:42;;;;;;;8.57;6.15;;;7.40;80.10;;;;;;5062493;28;20035;-75
2023/12/27 06:05:12;;;;;;;9.13;5.63;;;7.40;80.10;;;;;;5077976;28;20032;-76
2023/12/27 06:07:38;;;;;;;9.55;6.18;;;7.40;80.20;;;;;;5062126;28;20036;-77
2023/12/27 06:10:05;;;;;;;8.70;6.00;;;7.40;80.30;;;;;;5060157;28;20042;-75
2023/12/27 06:12:31;;;;;;;9.32;6.32;;;7.40;80.50;;;;;;5062860;28;20123;-76
2023/12/27 06:14:59;;;;;;;11.05;8.18;;;7.40;80.30;;;;;;5060737;28;20033;-75
2023/12/27 06:17:25;;;;;;;10.82;7.95;;;7.40;80.50;;;;;;5063228;28;20661;-76
2023/12/27 06:19:51;;;;;;;12.02;7.20;;;7.40;80.90;;;;;;5061977;28;20114;-76
2023/12/27 06:22:17;;;;;;;9.68;6.82;;;7.40;80.30;;;;;;5062978;28;20036;-75
2023/12/27 06:24:43;;;;;;;9.75;6.80;;;7.40;80.30;;;;;;5061068;28;20029;-77
2023/12/27 06:27:10;;;;;;;9.13;6.57;;;7.40;80.40;;;;;;5045299;28;20662;-77
2023/12/27 06:29:36;;;;;;;8.15;6.50;;;7.40;79.90;;;;;;5060858;28;20032;-83
2023/12/27 06:32:03;;;;;;;8.68;5.50;;;7.50;81.30;;;;;;5060997;28;20039;-85
2023/12/27 06:34:29;;;;;;;6.15;4.18;;;7.60;83.60;;;;;;5058415;28;20046;-81
2023/12/27 06:36:55;;;;;;;7.80;5.93;;;7.60;82.90;;;;;;5060242;28;20047;-80
2023/12/27 06:39:21;;;;;;;6.80;5.28;;;7.60;82.90;;;;;;5064920;28;20090;-81
2023/12/27 06:41:48;;;;;;;15.50;6.10;;;7.60;82.10;;;;;;5060772;28;20033;-80
2023/12/27 06:44:14;;;;;;;10.30;5.85;;;7.60;81.70;;;;;;5062653;28;20032;-80
2023/12/27 06:46:40;;;;;;;9.15;6.72;;;7.60;81.20;;;;;;5060091;28;20834;-80
2023/12/27 06:49:06;;;;;;;8.00;5.95;;;7.60;81.10;;;;;;5062855;28;20051;-81
2023/12/27 06:51:32;;;;;;;9.85;6.70;;;7.60;80.70;;;;;;5057716;28;20070;-82
2023/12/27 06:53:58;;;;;;;8.38;6.30;;;7.60;80.10;;;;;;5045308;28;20511;-81
2023/12/27 06:56:25;;;;;;;8.43;5.90;;;7.60;80.40;;;;;;5048631;28;20554;-84
2023/12/27 06:58:51;;;;;;;8.60;6.10;;;7.60;80.50;;;;;;5042030;28;20395;-82
2023/12/27 07:01:17;;;;;;;8.07;6.10;;;7.60;80.20;;;;;;5056175;28;20518;-81
2023/12/27 07:03:43;;;;;;;9.20;6.07;;;7.60;80.20;;;;;;5058611;28;20048;-81
2023/12/27 07:06:09;;;;;;;7.22;6.15;;;7.60;80.00;;;;;;5043405;28;20048;-83
2023/12/27 07:08:35;;;;;;;7.30;5.28;;;7.60;80.10;;;;;;5046676;28;20068;-82
2023/12/27 07:11:01;;;;;;;7.88;6.18;;;7.60;80.10;;;;;;5056829;28;20021;-81
2023/12/27 07:13:28;;;;;;;7.85;5.95;;;7.60;80.00;;;;;;5056140;28;20503;-79
2023/12/27 07:15:54;;;;;;;7.78;5.78;;;7.60;79.90;;;;;;5064787;28;20043;-80
2023/12/27 07:18:20;;;;;;;8.43;6.10;;;7.60;79.50;;;;;;5073029;28;20031;-84
2023/12/27 07:20:46;;;;;;;6.93;5.75;;;7.60;79.40;;;;;;5063793;28;20136;-83
2023/12/27 07:23:12;;;;;;;7.88;5.28;;;7.60;79.80;;;;;;5047999;28;20107;-81
2023/12/27 07:25:39;;;;;;;8.15;6.10;;;7.60;79.10;;;;;;5043464;28;20044;-81
2023/12/27 07:28:05;;;;;;;8.77;6.30;;;7.60;79.10;;;;;;5045942;28;20119;-82
2023/12/27 07:30:31;;;;;;;8.48;6.55;;;7.60;79.10;;;;;;5054395;28;20028;-82
2023/12/27 07:32:57;;;;;;;7.90;5.70;;;7.60;79.20;;;;;;5059693;28;20029;-82
2023/12/27 07:35:24;;;;;;;7.43;5.72;;;7.60;78.70;;;;;;5047525;28;20036;-82
2023/12/27 07:37:50;;;;;;;11.07;6.90;;;7.50;78.70;;;;;;5058792;28;20178;-81
2023/12/27 07:40:16;;;;;;;8.60;6.72;;;7.60;78.70;;;;;;5060002;28;20039;-81
2023/12/27 07:42:43;;;;;;;9.98;6.38;;;7.60;78.50;;;;;;5077186;28;20033;-81
2023/12/27 07:45:09;;;;;;;8.20;5.97;;;7.60;78.50;;;;;;5058515;28;20030;-80
2023/12/27 07:47:35;;;;;;;7.85;6.20;;;7.60;78.30;;;;;;5028839;28;20470;-81
2023/12/27 07:50:02;;;;;;;9.05;6.38;;;7.60;78.30;;;;;;5048225;28;20135;-82
2023/12/27 07:52:28;;;;;;;11.13;7.18;;;7.60;78.00;;;;;;5047714;28;20079;-82
2023/12/27 07:54:54;;;;;;;9.77;6.82;;;7.60;78.20;;;;;;5046418;28;20515;-82
2023/12/27 07:57:21;;;;;;;8.55;6.65;;;7.60;78.00;;;;;;5059862;28;20111;-82
2023/12/27 07:59:47;;;;;;;10.32;6.97;;;7.60;77.70;;;;;;5027141;28;20040;-85
2023/12/27 08:02:13;;;;;;;8.80;6.75;;;7.60;78.00;;;;;;5046994;28;20029;-78
2023/12/27 08:04:39;;;;;;;9.25;6.47;;;7.60;78.00;;;;;;5062032;28;20040;-81
2023/12/27 08:07:05;;;;;;;9.00;6.63;;;7.60;77.40;;;;;;5060813;28;20038;-81
2023/12/27 08:09:31;;;;;;;10.82;6.78;;;7.70;77.10;;;;;;5074093;28;20048;-79
2023/12/27 08:11:57;;;;;;;11.60;6.93;;;7.70;77.70;;;;;;5060413;28;20033;-85
2023/12/27 08:14:30;;;;;;;10.32;6.85;;;7.70;78.40;;;;;;5060097;28;20131;-90
2023/12/27 08:16:56;;;;;;;9.32;7.60;;;7.70;78.20;;;;;;5059907;28;20081;-84
2023/12/27 08:19:42;;;;;;;12.15;7.47;;;7.70;78.30;;;;;;5030737;28;20039;-80
2023/12/27 08:23:38;;;;;;;11.25;7.45;;;7.70;78.50;;;;;;5011677;28;20139;-80
2023/12/27 08:30:07;;;;;;;9.27;6.10;;;7.70;78.20;;;;;;5042988;28;20057;-77
2023/12/27 08:32:33;;;;;;;9.88;5.60;;;7.80;82.50;;;;;;5043212;28;20029;-77
2023/12/27 08:35:00;;;;;;;7.65;5.20;;;8.00;87.00;;;;;;5066413;28;20033;-77
2023/12/27 08:37:26;;;;;;;7.78;4.78;;;8.20;87.00;;;;;;5047883;28;20123;-81
2023/12/27 08:39:52;;;;;;;6.05;4.88;;;8.40;86.90;;;;;;5046940;28;20056;-77
2023/12/27 08:42:18;;;;;;;9.20;4.75;;;8.60;86.70;;;;;;5029749;28;20041;-78
2023/12/27 08:44:44;;;;;;;9.52;5.00;;;8.80;86.90;;;;;;5048864;28;20043;-80
2023/12/27 08:47:10;;;;;;;6.55;4.82;;;9.00;85.90;;;;;;5058738;28;20036;-79
2023/12/27 08:49:37;;;;;;;9.85;5.50;;;9.20;85.60;;;;;;5042325;28;20029;-78
2023/12/27 08:52:03;;;;;;;10.27;5.07;;;9.30;85.80;;;;;;5052702;28;20037;-79
2023/12/27 08:54:29;;;;;;;11.90;5.28;;;9.50;85.90;;;;;;5034192;28;20055;-78
2023/12/27 08:56:56;;;;;;;6.47;4.75;;;9.60;85.50;;;;;;5051270;28;20032;-78
2023/12/27 08:59:22;;;;;;;7.50;4.85;;;9.80;85.30;;;;;;5035058;28;20029;-83
2023/12/27 09:01:48;;;;;;;7.20;4.70;;;10.00;84.90;;;;;;5055234;28;20039;-80
2023/12/27 09:04:14;;;;;;;5.72;4.03;;;10.10;84.60;;;;;;5054190;28;20060;-81
2023/12/27 09:06:40;;;;;;;6.53;4.47;;;10.20;84.50;;;;;;5065946;28;20043;-79
2023/12/27 09:09:06;;;;;;;6.78;4.65;;;10.30;84.20;;;;;;5071536;28;20097;-78
2023/12/27 09:11:32;;;;;;;8.77;4.63;;;10.40;84.00;;;;;;5070643;28;20056;-79
2023/12/27 09:13:58;;;;;;;10.98;4.88;;;10.60;83.60;;;;;;5072697;28;20032;-79
2023/12/27 09:16:24;;;;;;;6.72;4.75;;;10.70;83.60;;;;;;5071623;28;20523;-79
2023/12/27 09:18:51;;;;;;;8.48;5.13;;;10.80;83.20;;;;;;5070210;28;20503;-79
2023/12/27 09:21:17;;;;;;;7.38;5.15;;;10.90;82.90;;;;;;5053053;28;20044;-78
2023/12/27 09:23:43;;;;;;;7.53;4.43;;;11.00;82.40;;;;;;5054554;28;20513;-78
2023/12/27 09:26:12;;;;;;;7.68;4.60;;;11.10;82.30;;;;;;5054688;28;20549;-78
2023/12/27 09:28:38;;;;;;;7.22;4.63;;;11.10;82.10;;;;;;5036753;28;20036;-76
2023/12/27 09:31:04;;;;;;;8.57;5.07;;;11.20;81.80;;;;;;5072196;28;20056;-76
2023/12/27 09:33:30;;;;;;;6.50;4.50;;;11.30;81.50;;;;;;5054084;28;20090;-75
2023/12/27 09:35:56;;;;;;;6.30;4.35;;;11.40;81.40;;;;;;5066331;28;20037;-76
2023/12/27 09:38:24;;;;;;;6.50;4.70;;;11.40;81.30;;;;;;5050295;28;20033;-74
2023/12/27 09:40:50;;;;;;;6.07;4.78;;;11.50;81.10;;;;;;5043655;28;20041;-75
2023/12/27 09:43:17;;;;;;;5.32;4.55;;;11.60;81.00;;;;;;5054129;28;20065;-75
2023/12/27 09:45:45;;;;;;;8.15;5.22;;;11.60;80.70;;;;;;5068484;28;20551;-75
2023/12/27 09:48:13;;;;;;;7.60;5.00;;;11.70;80.30;;;;;;5034906;28;20167;-74
2023/12/27 09:50:42;;;;;;;7.28;4.38;;;11.80;80.10;;;;;;5051385;28;20052;-74
2023/12/27 09:53:11;;;;;;;5.80;4.35;;;11.90;79.80;;;;;;5052360;28;20040;-74
2023/12/27 09:55:37;;;;;;;6.80;4.63;;;12.00;80.70;;;;;;5054284;28;20039;-74
2023/12/27 09:58:04;;;;;;;3.88;3.58;;;12.00;80.00;;;;;;5051235;28;20048;-74
2023/12/27 10:00:33;;;;;;;8.63;4.70;;;12.00;79.90;;;;;;5059981;28;20041;-76
2023/12/27 10:03:04;;;;;;;5.43;3.90;;;12.10;79.80;;;;;;5071436;28;20040;-76
2023/12/27 10:06:03;;;;;;;6.65;4.47;;;12.20;79.90;;;;;;5071220;28;20129;-75
2023/12/27 10:08:29;;;;;;;4.80;3.78;;;12.20;79.80;;;;;;5071844;28;20055;-77
2023/12/27 10:10:56;;;;;;;6.35;4.25;;;12.20;79.70;;;;;;5067826;28;20028;-76
2023/12/27 10:13:22;;;;;;;5.38;3.92;;;12.30;79.40;;;;;;5070002;28;20444;-75
2023/12/27 10:15:48;;;;;;;7.00;4.00;;;12.30;79.30;;;;;;5068538;28;20499;-75
2023/12/27 10:18:14;;;;;;;4.32;3.80;;;12.40;79.40;;;;;;5071114;28;20166;-76
2023/12/27 10:20:46;;;;;;;5.75;4.32;;;12.40;79.20;;;;;;5036859;28;20044;-75
2023/12/27 10:23:12;;;;;;;4.97;4.00;;;12.50;79.30;;;;;;5070778;28;20391;-76
2023/12/27 10:25:40;;;;;;;6.32;3.92;;;12.50;79.40;;;;;;5069409;28;20472;-77
2023/12/27 10:28:07;;;;;;;6.57;4.25;;;12.50;79.30;;;;;;5067512;28;20082;-75
2023/12/27 10:30:33;;;;;;;6.40;3.90;;;12.60;79.40;;;;;;5070143;28;20094;-76
2023/12/27 10:33:01;;;;;;;5.57;3.92;;;12.60;79.40;;;;;;5065587;28;20384;-76
2023/12/27 10:35:28;;;;;;;5.40;4.40;;;12.60;79.30;;;;;;5053609;28;20029;-76
2023/12/27 10:38:02;;;;;;;4.75;3.80;;;12.70;79.40;;;;;;5069516;28;20028;-76
2023/12/27 10:40:29;;;;;;;6.28;3.90;;;12.70;79.40;;;;;;5081148;28;20121;-77
2023/12/27 10:42:55;;;;;;;5.82;4.03;;;12.70;79.30;;;;;;5064049;28;20042;-75
2023/12/27 10:45:21;;;;;;;4.88;3.70;;;12.70;79.30;;;;;;5064471;28;20032;-76
2023/12/27 10:47:59;;;;;;;5.65;4.10;;;12.70;79.20;;;;;;5047177;28;20098;-77
2023/12/27 10:50:30;;;;;;;6.15;4.07;;;12.80;79.20;;;;;;5060307;28;20423;-77
2023/12/27 10:53:05;;;;;;;6.25;4.18;;;12.80;79.20;;;;;;5028313;28;20036;-77
2023/12/27 10:55:33;;;;;;;5.57;4.30;;;12.80;79.10;;;;;;5045921;28;20033;-76
2023/12/27 10:58:01;;;;;;;7.07;4.38;;;12.90;79.00;;;;;;5064399;28;20036;-76
2023/12/27 11:00:31;;;;;;;7.57;4.47;;;12.90;79.00;;;;;;5047303;28;20036;-77
2023/12/27 11:02:57;;;;;;;5.32;4.60;;;12.90;78.80;;;;;;5062628;28;20032;-76
2023/12/27 11:05:26;;;;;;;6.30;4.20;;;13.00;78.70;;;;;;5064321;28;20033;-75
2023/12/27 11:07:54;;;;;;;5.47;4.30;;;13.00;78.60;;;;;;5064700;28;20052;-76
2023/12/27 11:10:23;;;;;;;4.80;3.97;;;13.10;78.80;;;;;;5062796;28;20101;-76
2023/12/27 11:12:50;;;;;;;4.00;3.60;;;13.10;78.80;;;;;;5077792;28;20040;-76
2023/12/27 11:15:23;;;;;;;5.93;4.45;;;13.10;78.80;;;;;;5060795;28;20036;-80
2023/12/27 11:17:49;;;;;;;7.05;5.07;;;13.00;78.90;;;;;;5064400;28;20400;-78
2023/12/27 11:20:20;;;;;;;8.88;5.30;;;13.00;78.10;;;;;;5050049;28;20036;-78
2023/12/27 11:22:47;;;;;;;7.60;5.65;;;12.90;76.40;;;;;;5047049;28;20423;-78
2023/12/27 11:25:13;;;;;;;6.90;5.53;;;12.70;74.80;;;;;;5046601;28;20035;-77
2023/12/27 11:27:41;;;;;;;7.78;6.00;;;12.50;73.90;;;;;;5059019;28;20447;-79
2023/12/27 11:30:11;;;;;;;7.78;5.40;;;12.40;72.90;;;;;;5047093;28;20033;-79
2023/12/27 11:32:41;;;;;;;5.65;5.03;;;12.30;71.80;;;;;;5045316;28;20029;-79
2023/12/27 11:35:23;;;;;;;6.45;5.15;;;12.20;71.50;;;;;;5077249;28;20037;-77
2023/12/27 11:37:52;;;;;;;6.28;4.47;;;12.00;71.40;;;;;;5059034;28;20025;-77
2023/12/27 11:40:34;;;;;;;7.63;5.15;;;12.00;70.80;;;;;;5063998;28;20410;-78
2023/12/27 11:43:03;;;;;;;6.05;5.00;;;11.90;70.80;;;;;;5060563;28;20028;-78
2023/12/27 11:45:58;;;;;;;5.35;4.30;;;11.80;70.30;;;;;;5062191;28;20033;-78
2023/12/27 11:48:27;;;;;;;7.47;5.20;;;11.60;70.50;;;;;;5060529;28;20037;-79
2023/12/27 11:50:55;;;;;;;6.05;4.93;;;11.60;70.60;;;;;;5046841;28;20048;-77
2023/12/27 11:53:30;;;;;;;5.88;4.45;;;11.50;71.00;;;;;;5060872;28;20570;-78
2023/12/27 11:56:01;;;;;;;5.60;4.43;;;11.40;71.00;;;;;;5062507;28;20051;-78
2023/12/27 11:58:38;;;;;;;6.25;5.30;;;11.30;70.60;;;;;;5063931;28;20056;-77
2023/12/27 12:01:35;;;;;;;6.28;5.35;;;11.20;70.90;;;;;;5061029;28;20503;-78
2023/12/27 12:04:08;;;;;;;5.47;4.80;;;11.10;70.80;;;;;;5040284;28;20046;-77
2023/12/27 12:06:55;;;;;;;6.10;4.68;;;11.00;70.70;;;;;;5058749;28;20041;-77
2023/12/27 12:09:36;;;;;;;5.65;4.68;;;11.00;70.90;;;;;;5060347;28;20033;-77
2023/12/27 12:12:15;;;;;;;6.13;4.60;;;10.90;71.00;;;;;;5048918;28;20507;-76
2023/12/27 12:14:41;;;;;;;5.95;4.60;;;10.90;71.20;;;;;;5048244;28;20029;-77
2023/12/27 12:17:08;;;;;;;6.28;4.88;;;10.80;72.00;;;;;;5032162;28;20029;-79
2023/12/27 12:19:39;;;;;;;7.28;4.60;;;10.70;71.40;;;;;;5043167;28;20033;-79
2023/12/27 12:22:05;;;;;;;6.22;4.95;;;10.70;70.80;;;;;;5064626;28;20028;-79
2023/12/27 12:24:34;;;;;;;6.68;5.13;;;10.60;71.10;;;;;;5050079;28;20155;-78
2023/12/27 12:27:01;;;;;;;6.45;4.70;;;10.60;71.20;;;;;;5062939;28;20052;-79
2023/12/27 12:29:28;;;;;;;7.72;5.70;;;10.50;71.40;;;;;;5069091;28;20033;-79
2023/12/27 12:31:55;;;;;;;8.23;5.95;;;10.50;71.50;;;;;;5066077;28;20048;-79
2023/12/27 12:34:29;;;;;;;6.68;5.20;;;10.40;71.50;;;;;;5066906;28;20388;-79
2023/12/27 12:36:59;;;;;;;6.30;4.88;;;10.40;71.60;;;;;;5066694;28;20047;-77
2023/12/27 12:39:27;;;;;;;7.95;5.30;;;10.40;71.70;;;;;;5068172;28;20033;-78
2023/12/27 12:41:53;;;;;;;7.53;5.32;;;10.30;71.40;;;;;;5067256;28;20047;-77
2023/12/27 12:44:20;;;;;;;6.43;4.75;;;10.30;71.40;;;;;;5067209;28;20636;-77
2023/12/27 12:46:46;;;;;;;6.78;4.95;;;10.20;71.80;;;;;;5050144;28;20532;-77
2023/12/27 12:49:13;;;;;;;5.30;4.60;;;10.20;71.90;;;;;;5050512;28;20044;-78
2023/12/27 12:51:39;;;;;;;5.70;4.53;;;10.10;71.90;;;;;;5080479;28;20055;-78
2023/12/27 12:54:07;;;;;;;5.65;4.13;;;10.10;71.70;;;;;;5064081;28;20503;-78
2023/12/27 12:56:33;;;;;;;5.00;3.88;;;10.10;71.80;;;;;;5050094;28;20045;-78
2023/12/27 12:58:59;;;;;;;3.90;3.50;;;10.00;71.80;;;;;;5034755;28;20407;-77